createdAt,value
2019-06-26T00:00:09.990Z,4.30
2019-06-26T00:02:38.236Z,4.17
2019-06-26T00:05:07.383Z,4.37
2019-06-26T00:07:35.688Z,4.10
2019-06-26T00:10:05.277Z,4.42
2019-06-26T00:12:33.500Z,4.40
2019-06-26T00:15:01.796Z,4.35
2019-06-26T00:17:30.065Z,4.40
2019-06-26T00:19:58.379Z,4.15
2019-06-26T00:22:26.841Z,4.17
2019-06-26T00:24:55.117Z,4.40
2019-06-26T00:27:23.425Z,4.28
2019-06-26T00:29:51.696Z,4.75
2019-06-26T00:32:19.931Z,4.70
2019-06-26T00:34:48.196Z,4.92
2019-06-26T00:37:16.426Z,4.45
2019-06-26T00:39:44.690Z,4.50
2019-06-26T00:42:12.945Z,4.40
2019-06-26T00:44:41.210Z,4.65
2019-06-26T00:47:09.442Z,4.75
2019-06-26T00:49:37.749Z,4.45
2019-06-26T00:52:05.978Z,4.67
2019-06-26T00:54:34.240Z,4.72
2019-06-26T00:57:02.497Z,4.92
2019-06-26T00:59:30.733Z,4.75
2019-06-26T01:01:58.997Z,4.20
2019-06-26T01:04:31.880Z,4.53
2019-06-26T01:07:00.131Z,4.47
2019-06-26T01:09:28.368Z,4.58
2019-06-26T01:11:56.624Z,4.78
2019-06-26T01:14:24.879Z,4.72
2019-06-26T01:16:53.157Z,4.83
2019-06-26T01:19:21.390Z,4.55
2019-06-26T01:21:49.647Z,4.83
2019-06-26T01:24:17.970Z,5.05
2019-06-26T01:26:46.244Z,4.90
2019-06-26T01:29:14.473Z,4.80
2019-06-26T01:31:42.741Z,5.72
2019-06-26T01:34:10.976Z,5.35
2019-06-26T01:36:39.247Z,4.70
2019-06-26T01:39:07.570Z,4.55
2019-06-26T01:41:35.884Z,4.60
2019-06-26T01:44:14.071Z,4.78
2019-06-26T01:49:02.537Z,4.83
2019-06-26T01:51:30.981Z,5.22
2019-06-26T01:53:59.270Z,4.42
2019-06-26T01:56:27.533Z,4.60
2019-06-26T01:58:55.768Z,4.67
2019-06-26T02:01:24.259Z,4.75
2019-06-26T02:03:52.670Z,4.67
2019-06-26T02:06:20.925Z,4.65
2019-06-26T02:08:49.157Z,5.50
2019-06-26T02:11:17.426Z,5.10
2019-06-26T02:13:45.708Z,4.92
2019-06-26T02:16:13.969Z,5.12
2019-06-26T02:18:43.861Z,4.75
2019-06-26T02:21:12.148Z,4.72
2019-06-26T02:23:40.385Z,4.90
2019-06-26T02:26:08.635Z,5.00
2019-06-26T02:28:36.885Z,5.20
2019-06-26T02:31:05.126Z,5.53
2019-06-26T02:33:33.390Z,5.28
2019-06-26T02:36:01.650Z,5.22
2019-06-26T02:38:29.915Z,5.12
2019-06-26T02:40:58.173Z,5.00
2019-06-26T02:43:26.500Z,5.03
2019-06-26T02:45:54.749Z,5.15
2019-06-26T02:48:23.053Z,4.97
2019-06-26T02:50:51.309Z,5.15
2019-06-26T02:53:19.564Z,5.10
2019-06-26T02:55:47.793Z,4.90
2019-06-26T02:58:16.049Z,5.53
2019-06-26T03:00:44.291Z,4.60
2019-06-26T03:03:12.517Z,4.78
2019-06-26T03:05:40.777Z,5.35
2019-06-26T03:08:09.053Z,5.53
2019-06-26T03:10:37.296Z,5.15
2019-06-26T03:13:08.551Z,5.35
2019-06-26T03:15:36.813Z,5.67
2019-06-26T03:18:05.043Z,5.25
2019-06-26T03:20:42.297Z,5.83
2019-06-26T03:23:10.537Z,5.62
2019-06-26T03:25:38.798Z,5.10
2019-06-26T03:28:07.102Z,5.30
2019-06-26T03:30:35.362Z,5.50
2019-06-26T03:33:03.598Z,5.33
2019-06-26T03:35:31.885Z,5.45
2019-06-26T03:38:00.106Z,5.95
2019-06-26T03:40:28.372Z,5.40
2019-06-26T03:42:56.670Z,5.20
2019-06-26T03:45:26.391Z,5.65
2019-06-26T03:47:54.882Z,5.58
2019-06-26T03:50:23.126Z,5.78
2019-06-26T03:52:51.503Z,6.75
2019-06-26T03:55:19.764Z,5.70
2019-06-26T03:57:48.054Z,6.08
2019-06-26T04:00:17.976Z,6.60
2019-06-26T04:02:46.224Z,6.25
2019-06-26T04:05:14.479Z,6.42
2019-06-26T04:07:42.725Z,6.42
2019-06-26T04:10:11.253Z,6.20
2019-06-26T04:12:39.675Z,6.28
2019-06-26T04:15:08.105Z,5.80
2019-06-26T04:17:36.351Z,6.30
2019-06-26T04:20:07.703Z,5.95
2019-06-26T04:22:35.989Z,5.85
2019-06-26T04:25:06.237Z,6.50
2019-06-26T04:27:34.481Z,5.95
2019-06-26T04:30:02.797Z,7.47
2019-06-26T04:32:31.057Z,7.78
2019-06-26T04:34:59.331Z,8.23
2019-06-26T04:37:27.586Z,7.62
2019-06-26T04:39:55.827Z,7.58
2019-06-26T04:42:24.085Z,7.53
2019-06-26T04:44:52.335Z,7.53
2019-06-26T04:47:20.594Z,7.62
2019-06-26T04:49:48.836Z,8.70
2019-06-26T04:52:17.093Z,8.85
2019-06-26T04:54:45.331Z,8.78
2019-06-26T04:57:13.590Z,8.65
2019-06-26T04:59:41.914Z,8.58
2019-06-26T05:02:10.169Z,8.18
2019-06-26T05:04:38.423Z,8.08
2019-06-26T05:07:06.678Z,8.88
2019-06-26T05:09:34.932Z,8.30
2019-06-26T05:12:03.176Z,8.35
2019-06-26T05:14:31.421Z,8.83
2019-06-26T05:16:59.672Z,8.40
2019-06-26T05:19:27.954Z,8.70
2019-06-26T05:21:56.262Z,8.60
2019-06-26T05:24:24.498Z,9.00
2019-06-26T05:26:52.790Z,9.30
2019-06-26T05:29:21.049Z,8.23
2019-06-26T05:31:49.285Z,7.65
2019-06-26T05:34:17.563Z,7.90
2019-06-26T05:36:45.800Z,7.35
2019-06-26T05:39:14.070Z,7.97
2019-06-26T05:41:42.296Z,7.47
2019-06-26T05:44:10.557Z,7.58
2019-06-26T05:46:38.790Z,7.95
2019-06-26T05:49:07.052Z,7.60
2019-06-26T05:51:35.315Z,7.10
2019-06-26T05:54:06.272Z,6.95
2019-06-26T05:56:34.565Z,7.08
2019-06-26T05:59:02.838Z,7.20
2019-06-26T06:01:31.188Z,7.80
2019-06-26T06:03:59.435Z,7.03
2019-06-26T06:06:40.689Z,7.12
2019-06-26T06:08:57.666Z,6.85
2019-06-26T06:11:25.913Z,7.17
2019-06-26T06:13:54.244Z,6.47
2019-06-26T06:16:22.473Z,6.97
2019-06-26T06:18:50.749Z,7.47
2019-06-26T06:21:18.997Z,6.78
2019-06-26T06:23:47.245Z,7.10
2019-06-26T06:26:15.482Z,7.12
2019-06-26T06:28:43.712Z,6.53
2019-06-26T06:31:11.989Z,6.60
2019-06-26T06:33:40.350Z,6.78
2019-06-26T06:36:09.826Z,6.45
2019-06-26T06:38:38.267Z,6.87
2019-06-26T06:41:06.506Z,6.62
2019-06-26T06:43:34.750Z,6.90
2019-06-26T06:46:03.217Z,7.08
2019-06-26T06:48:31.628Z,6.65
2019-06-26T06:50:59.876Z,6.80
2019-06-26T06:53:28.197Z,6.78
2019-06-26T06:55:56.448Z,6.58
2019-06-26T06:58:24.742Z,6.70
2019-06-26T07:00:52.995Z,7.12
2019-06-26T07:03:22.054Z,6.45
2019-06-26T07:05:50.303Z,7.10
2019-06-26T07:08:18.578Z,6.80
2019-06-26T07:10:46.915Z,6.42
2019-06-26T07:13:15.183Z,6.97
2019-06-26T07:15:43.502Z,6.62
2019-06-26T07:18:11.745Z,6.67
2019-06-26T07:20:40.175Z,6.85
2019-06-26T07:23:08.408Z,6.75
2019-06-26T07:25:36.677Z,6.17
2019-06-26T07:28:04.959Z,6.87
2019-06-26T07:30:33.310Z,6.60
2019-06-26T07:33:01.581Z,6.50
2019-06-26T07:35:29.820Z,6.70
2019-06-26T07:38:00.241Z,6.45
2019-06-26T07:40:28.037Z,6.53
2019-06-26T07:42:56.304Z,6.53
2019-06-26T07:45:24.564Z,6.58
2019-06-26T07:47:52.876Z,6.72
2019-06-26T07:50:21.105Z,6.17
2019-06-26T07:52:49.384Z,6.10
2019-06-26T07:55:17.687Z,6.75
2019-06-26T07:57:45.941Z,6.37
2019-06-26T08:00:15.146Z,6.60
2019-06-26T08:02:43.409Z,6.62
2019-06-26T08:05:11.640Z,6.85
2019-06-26T08:07:39.889Z,6.50
2019-06-26T08:10:08.132Z,6.30
2019-06-26T08:12:36.385Z,6.83
2019-06-26T08:15:06.185Z,6.75
2019-06-26T08:17:34.449Z,6.47
2019-06-26T08:20:02.688Z,6.28
2019-06-26T08:22:30.952Z,6.75
2019-06-26T08:24:59.205Z,6.30
2019-06-26T08:27:27.461Z,6.35
2019-06-26T08:29:55.806Z,6.92
2019-06-26T08:32:25.999Z,6.22
2019-06-26T08:34:54.077Z,6.72
2019-06-26T08:37:22.364Z,6.30
2019-06-26T08:39:50.601Z,6.17
2019-06-26T08:42:19.002Z,5.85
2019-06-26T08:44:47.302Z,6.62
2019-06-26T08:47:15.544Z,6.33
2019-06-26T08:49:43.801Z,7.17
2019-06-26T08:52:12.050Z,6.97
2019-06-26T08:54:40.321Z,6.62
2019-06-26T08:57:08.566Z,6.45
2019-06-26T08:59:36.809Z,6.85
2019-06-26T09:02:05.045Z,6.58
2019-06-26T09:04:33.313Z,6.80
2019-06-26T09:07:01.556Z,6.10
2019-06-26T09:09:29.817Z,6.50
2019-06-26T09:11:58.045Z,6.92
2019-06-26T09:14:26.381Z,6.55
2019-06-26T09:16:54.635Z,6.87
2019-06-26T09:19:22.885Z,6.92
2019-06-26T09:21:51.120Z,6.58
2019-06-26T09:24:19.392Z,6.50
2019-06-26T09:26:47.692Z,6.33
2019-06-26T09:29:16.033Z,6.92
2019-06-26T09:31:44.267Z,6.30
2019-06-26T09:34:12.547Z,6.92
2019-06-26T09:36:40.811Z,7.05
2019-06-26T09:39:09.118Z,6.35
2019-06-26T09:41:37.365Z,6.72
2019-06-26T09:44:05.640Z,6.72
2019-06-26T09:46:33.941Z,7.08
2019-06-26T09:49:02.222Z,6.62
2019-06-26T09:51:30.585Z,6.65
2019-06-26T09:53:58.914Z,6.87
2019-06-26T09:56:27.176Z,7.22
2019-06-26T09:58:55.421Z,7.15
2019-06-26T10:01:23.674Z,6.75
2019-06-26T10:03:51.934Z,6.78
2019-06-26T10:06:20.260Z,6.70
2019-06-26T10:08:48.515Z,7.20
2019-06-26T10:11:16.790Z,6.90
2019-06-26T10:13:45.025Z,7.60
2019-06-26T10:16:13.298Z,6.67
2019-06-26T10:18:41.528Z,6.85
2019-06-26T10:21:09.791Z,7.20
2019-06-26T10:23:38.073Z,7.05
2019-06-26T10:26:06.419Z,6.55
2019-06-26T10:28:34.814Z,7.42
2019-06-26T10:31:03.085Z,6.80
2019-06-26T10:33:31.344Z,7.25
2019-06-26T10:35:59.590Z,6.60
2019-06-26T10:38:27.834Z,6.47
2019-06-26T10:40:56.093Z,6.60
2019-06-26T10:43:24.681Z,6.53
2019-06-26T10:45:52.990Z,6.33
2019-06-26T10:48:21.213Z,6.40
2019-06-26T10:50:57.899Z,6.78
2019-06-26T10:53:19.448Z,6.05
2019-06-26T10:55:47.691Z,6.25
2019-06-26T10:58:15.953Z,6.37
2019-06-26T11:00:44.234Z,5.90
2019-06-26T11:03:12.561Z,5.72
2019-06-26T11:05:41.647Z,6.17
2019-06-26T11:08:09.958Z,6.60
2019-06-26T11:10:38.189Z,6.28
2019-06-26T11:13:06.445Z,6.12
2019-06-26T11:15:34.693Z,5.97
2019-06-26T11:18:02.965Z,5.65
2019-06-26T11:20:31.295Z,5.60
2019-06-26T11:22:59.742Z,5.78
2019-06-26T11:25:28.048Z,5.15
2019-06-26T11:27:56.316Z,4.78
2019-06-26T11:30:24.551Z,4.80
2019-06-26T11:32:52.822Z,5.40
2019-06-26T11:35:21.068Z,4.83
2019-06-26T11:37:49.317Z,4.47
2019-06-26T11:40:17.654Z,4.15
2019-06-26T11:42:46.194Z,4.20
2019-06-26T11:45:14.571Z,4.40
2019-06-26T11:47:45.700Z,3.85
2019-06-26T11:50:12.881Z,4.25
2019-06-26T11:52:41.132Z,3.85
2019-06-26T11:55:09.476Z,4.08
2019-06-26T11:57:37.749Z,4.30
2019-06-26T12:00:14.349Z,3.72
2019-06-26T12:02:42.668Z,4.00
2019-06-26T12:05:11.797Z,4.67
2019-06-26T12:07:40.056Z,4.25
2019-06-26T12:10:10.025Z,4.00
2019-06-26T12:15:06.841Z,4.97
2019-06-26T12:17:35.082Z,4.08
2019-06-26T12:20:17.814Z,4.65
2019-06-26T12:22:34.157Z,4.40
2019-06-26T12:25:02.500Z,3.90
2019-06-26T12:27:30.735Z,4.83
2019-06-26T12:29:59.005Z,4.47
2019-06-26T12:32:27.266Z,5.05
2019-06-26T12:34:55.806Z,4.78
2019-06-26T12:37:36.980Z,4.65
2019-06-26T12:39:54.146Z,4.30
2019-06-26T12:42:22.457Z,4.70
2019-06-26T12:44:50.745Z,4.40
2019-06-26T12:47:18.971Z,4.60
2019-06-26T12:49:47.230Z,4.50
2019-06-26T12:52:17.040Z,4.47
2019-06-26T12:57:13.173Z,4.42
2019-06-26T12:59:56.003Z,4.37
2019-06-26T13:02:11.426Z,4.50
2019-06-26T13:04:39.689Z,4.75
2019-06-26T13:07:08.230Z,4.83
2019-06-26T13:09:36.615Z,4.20
2019-06-26T13:12:05.020Z,3.90
2019-06-26T13:14:33.289Z,4.40
2019-06-26T13:17:01.640Z,4.33
2019-06-26T13:19:29.971Z,4.20
2019-06-26T13:21:58.340Z,4.50
2019-06-26T13:24:26.619Z,4.10
2019-06-26T13:26:54.899Z,4.30
2019-06-26T13:29:23.304Z,4.35
2019-06-26T13:31:51.575Z,4.10
2019-06-26T13:34:19.805Z,4.20
2019-06-26T13:36:48.626Z,4.62
2019-06-26T13:39:16.906Z,4.35
2019-06-26T13:41:45.172Z,3.72
2019-06-26T13:44:13.411Z,3.52
2019-06-26T13:46:41.689Z,4.33
2019-06-26T13:49:09.999Z,4.17
2019-06-26T13:51:38.268Z,4.10
2019-06-26T13:54:06.505Z,4.30
2019-06-26T13:56:34.770Z,3.80
2019-06-26T13:59:03.039Z,3.72
2019-06-26T14:01:31.297Z,4.22
2019-06-26T14:03:59.557Z,4.00
2019-06-26T14:06:27.828Z,3.83
2019-06-26T14:08:56.154Z,3.80
2019-06-26T14:11:24.470Z,4.35
2019-06-26T14:13:52.735Z,4.05
2019-06-26T14:16:21.004Z,3.95
2019-06-26T14:18:49.242Z,3.85
2019-06-26T14:21:25.607Z,4.08
2019-06-26T14:26:15.052Z,3.90
2019-06-26T14:28:43.309Z,3.60
2019-06-26T14:31:11.547Z,3.72
2019-06-26T14:33:39.816Z,3.60
2019-06-26T14:36:08.054Z,3.90
2019-06-26T14:38:36.317Z,4.03
2019-06-26T14:41:04.579Z,4.17
2019-06-26T14:43:32.897Z,3.52
2019-06-26T14:46:01.146Z,4.67
2019-06-26T14:48:29.417Z,4.37
2019-06-26T14:50:57.652Z,4.28
2019-06-26T14:53:27.557Z,4.35
2019-06-26T14:55:55.883Z,4.40
2019-06-26T14:58:24.292Z,4.67
2019-06-26T15:00:52.549Z,4.17
2019-06-26T15:03:20.870Z,3.77
2019-06-26T15:05:49.100Z,4.70
2019-06-26T15:08:17.367Z,3.98
2019-06-26T15:10:45.665Z,4.40
2019-06-26T15:13:13.919Z,3.75
2019-06-26T15:15:42.164Z,3.60
2019-06-26T15:18:11.571Z,4.00
2019-06-26T15:20:40.173Z,4.30
2019-06-26T15:23:08.446Z,5.15
2019-06-26T15:25:36.701Z,4.15
2019-06-26T15:28:04.999Z,4.17
2019-06-26T15:30:33.259Z,4.08
2019-06-26T15:33:01.575Z,3.83
2019-06-26T15:35:29.812Z,4.58
2019-06-26T15:37:58.059Z,3.62
2019-06-26T15:40:26.320Z,4.30
2019-06-26T15:42:54.612Z,4.55
2019-06-26T15:45:22.958Z,3.90
2019-06-26T15:47:51.209Z,3.77
2019-06-26T15:50:19.478Z,4.17
2019-06-26T15:52:47.727Z,4.03
2019-06-26T15:55:15.992Z,4.12
2019-06-26T15:57:44.256Z,3.87
2019-06-26T16:00:12.574Z,3.98
2019-06-26T16:02:40.934Z,3.87
2019-06-26T16:05:09.268Z,4.00
2019-06-26T16:07:37.530Z,3.80
2019-06-26T16:10:09.178Z,4.10
2019-06-26T16:12:37.433Z,4.08
2019-06-26T16:15:06.221Z,4.10
2019-06-26T16:17:42.107Z,3.72
2019-06-26T16:20:10.426Z,4.03
2019-06-26T16:22:38.672Z,4.00
2019-06-26T16:25:07.423Z,3.83
2019-06-26T16:27:35.715Z,3.77
2019-06-26T16:30:08.156Z,3.45
2019-06-26T16:32:36.445Z,3.50
2019-06-26T16:35:06.742Z,3.90
2019-06-26T16:37:35.023Z,4.20
2019-06-26T16:40:04.920Z,4.17
2019-06-26T16:45:00.737Z,3.70
2019-06-26T16:47:28.968Z,4.08
2019-06-26T16:49:57.236Z,3.95
2019-06-26T16:52:25.470Z,4.28
2019-06-26T16:54:53.734Z,3.85
2019-06-26T16:57:21.965Z,4.05
2019-06-26T16:59:50.239Z,3.55
2019-06-26T17:02:18.523Z,4.60
2019-06-26T17:04:46.762Z,4.00
2019-06-26T17:07:15.042Z,4.17
2019-06-26T17:09:44.403Z,4.10
2019-06-26T17:12:12.822Z,4.90
2019-06-26T17:14:41.075Z,4.50
2019-06-26T17:17:09.416Z,4.30
2019-06-26T17:19:37.669Z,5.03
2019-06-26T17:22:05.938Z,4.80
2019-06-26T17:24:34.194Z,5.00
2019-06-26T17:27:02.464Z,4.90
2019-06-26T17:29:30.718Z,4.40
2019-06-26T17:31:58.991Z,4.55
2019-06-26T17:34:27.441Z,4.78
2019-06-26T17:36:55.785Z,4.67
2019-06-26T17:39:24.042Z,4.62
2019-06-26T17:41:52.309Z,4.65
2019-06-26T17:44:20.557Z,4.55
2019-06-26T17:46:48.853Z,4.12
2019-06-26T17:49:17.107Z,5.08
2019-06-26T17:51:45.411Z,4.60
2019-06-26T17:54:13.673Z,5.00
2019-06-26T17:56:41.928Z,5.30
2019-06-26T17:59:10.222Z,6.50
2019-06-26T18:01:38.550Z,6.08
2019-06-26T18:04:06.790Z,6.12
2019-06-26T18:06:35.035Z,5.37
2019-06-26T18:09:03.295Z,5.83
2019-06-26T18:11:31.549Z,5.37
2019-06-26T18:13:59.900Z,4.53
2019-06-26T18:16:28.156Z,4.60
2019-06-26T18:18:56.441Z,4.85
2019-06-26T18:21:24.759Z,3.90
2019-06-26T18:23:53.099Z,4.72
2019-06-26T18:26:21.350Z,4.72
2019-06-26T18:28:49.617Z,4.65
2019-06-26T18:31:17.909Z,4.90
2019-06-26T18:33:46.179Z,4.65
2019-06-26T18:36:14.413Z,4.47
2019-06-26T18:38:42.689Z,4.80
2019-06-26T18:41:10.944Z,5.33
2019-06-26T18:43:39.235Z,5.28
2019-06-26T18:46:07.576Z,4.42
2019-06-26T18:48:35.847Z,5.17
2019-06-26T18:51:04.102Z,5.08
2019-06-26T18:53:32.368Z,4.58
2019-06-26T18:56:00.619Z,4.40
2019-06-26T18:58:30.869Z,5.05
2019-06-26T19:00:58.869Z,4.78
2019-06-26T19:03:27.120Z,4.75
2019-06-26T19:05:55.373Z,4.70
2019-06-26T19:08:23.606Z,5.10
2019-06-26T19:10:51.871Z,4.97
2019-06-26T19:13:20.672Z,4.90
2019-06-26T19:15:49.065Z,4.62
2019-06-26T19:18:17.344Z,5.08
2019-06-26T19:20:45.589Z,5.17
2019-06-26T19:23:13.855Z,5.33
2019-06-26T19:25:42.153Z,5.03
2019-06-26T19:28:10.406Z,5.42
2019-06-26T19:30:38.676Z,4.80
2019-06-26T19:33:06.987Z,5.40
2019-06-26T19:35:35.277Z,5.50
2019-06-26T19:38:03.529Z,5.15
2019-06-26T19:40:31.818Z,5.28
2019-06-26T19:43:00.065Z,6.03
2019-06-26T19:45:28.414Z,5.20
2019-06-26T19:47:56.685Z,5.55
2019-06-26T19:50:24.941Z,5.50
2019-06-26T19:52:53.178Z,5.35
2019-06-26T19:55:21.472Z,5.55
2019-06-26T19:57:50.255Z,6.30
2019-06-26T20:00:18.556Z,6.08
2019-06-26T20:02:46.856Z,5.05
2019-06-26T20:05:15.134Z,5.37
2019-06-26T20:07:43.464Z,6.00
2019-06-26T20:10:11.725Z,5.53
2019-06-26T20:12:39.970Z,5.60
2019-06-26T20:15:08.245Z,6.05
2019-06-26T20:17:36.480Z,5.72
2019-06-26T20:20:06.757Z,6.35
2019-06-26T20:22:34.996Z,5.80
2019-06-26T20:25:04.207Z,6.50
2019-06-26T20:27:32.437Z,6.10
2019-06-26T20:30:00.701Z,6.22
2019-06-26T20:32:29.037Z,6.12
2019-06-26T20:34:57.293Z,5.55
2019-06-26T20:37:25.570Z,5.80
2019-06-26T20:39:53.860Z,6.15
2019-06-26T20:42:22.118Z,6.05
2019-06-26T20:44:50.468Z,6.30
2019-06-26T20:47:18.725Z,6.05
2019-06-26T20:49:53.211Z,6.17
2019-06-26T20:52:16.957Z,6.28
2019-06-26T20:54:59.899Z,5.62
2019-06-26T20:57:15.195Z,6.83
2019-06-26T20:59:43.441Z,6.42
2019-06-26T21:02:11.693Z,6.65
2019-06-26T21:04:39.954Z,6.53
2019-06-26T21:07:08.218Z,6.53
2019-06-26T21:09:36.454Z,7.00
2019-06-26T21:12:04.715Z,6.28
2019-06-26T21:14:32.960Z,7.05
2019-06-26T21:17:01.249Z,6.70
2019-06-26T21:19:29.494Z,6.58
2019-06-26T21:21:57.763Z,6.78
2019-06-26T21:24:26.021Z,6.37
2019-06-26T21:26:54.278Z,6.72
2019-06-26T21:29:22.520Z,6.95
2019-06-26T21:31:50.783Z,6.97
2019-06-26T21:34:19.024Z,6.90
2019-06-26T21:36:47.311Z,6.22
2019-06-26T21:39:15.545Z,6.37
2019-06-26T21:41:43.818Z,6.75
2019-06-26T21:44:12.066Z,6.90
2019-06-26T21:46:40.353Z,7.58
2019-06-26T21:49:08.590Z,7.10
2019-06-26T21:51:36.845Z,7.65
2019-06-26T21:54:05.113Z,6.72
2019-06-26T21:56:33.349Z,7.30
2019-06-26T21:59:01.619Z,6.70
2019-06-26T22:01:32.903Z,7.15
2019-06-26T22:04:01.885Z,6.78
2019-06-26T22:06:30.135Z,6.90
2019-06-26T22:08:58.402Z,6.83
2019-06-26T22:11:26.645Z,6.78
2019-06-26T22:13:54.936Z,6.70
2019-06-26T22:16:23.279Z,6.70
2019-06-26T22:18:51.574Z,7.17
2019-06-26T22:21:19.829Z,6.85
2019-06-26T22:23:48.068Z,7.17
2019-06-26T22:26:16.322Z,6.87
2019-06-26T22:28:44.579Z,7.20
2019-06-26T22:31:12.822Z,6.95
2019-06-26T22:33:41.093Z,7.42
2019-06-26T22:36:09.358Z,7.65
2019-06-26T22:38:37.627Z,7.37
2019-06-26T22:41:05.864Z,7.30
2019-06-26T22:43:34.212Z,6.75
2019-06-26T22:46:02.476Z,7.67
2019-06-26T22:48:30.798Z,6.10
2019-06-26T22:50:59.048Z,7.10
2019-06-26T22:53:27.306Z,6.42
2019-06-26T22:56:07.173Z,6.87
2019-06-26T22:58:25.545Z,7.33
2019-06-26T23:00:53.788Z,7.55
2019-06-26T23:03:22.053Z,7.35
2019-06-26T23:05:50.327Z,7.20
2019-06-26T23:08:18.570Z,6.65
2019-06-26T23:10:46.833Z,7.03
2019-06-26T23:13:15.082Z,7.17
2019-06-26T23:15:43.343Z,7.17
2019-06-26T23:18:11.610Z,7.33
2019-06-26T23:20:40.706Z,7.03
2019-06-26T23:23:08.956Z,7.30
2019-06-26T23:25:37.226Z,7.62
2019-06-26T23:28:05.464Z,7.20
2019-06-26T23:30:33.742Z,7.90
2019-06-26T23:33:02.078Z,7.58
2019-06-26T23:35:30.339Z,7.00
2019-06-26T23:37:58.591Z,6.58
2019-06-26T23:40:26.859Z,7.25
2019-06-26T23:42:55.114Z,6.83
2019-06-26T23:45:23.390Z,7.17
2019-06-26T23:47:51.662Z,6.65
2019-06-26T23:50:19.945Z,7.80
2019-06-26T23:52:48.197Z,6.97
2019-06-26T23:55:16.455Z,7.00
2019-06-26T23:57:58.617Z,6.90
